sensor_id;sensor_type;location;lat;lon;timestamp;temperature;humidity
35563;DHT22;21665;40.108;18.302;2023-03-01T00:01:37;11.10;99.90
35563;DHT22;21665;40.108;18.302;2023-03-01T00:04:04;11.00;99.90
35563;DHT22;21665;40.108;18.302;2023-03-01T00:06:31;11.00;99.90
35563;DHT22;21665;40.108;18.302;2023-03-01T00:08:57;11.00;99.90
35563;DHT22;21665;40.108;18.302;2023-03-01T00:11:29;11.00;99.90
35563;DHT22;21665;40.108;18.302;2023-03-01T00:13:57;10.90;99.90
35563;DHT22;21665;40.108;18.302;2023-03-01T00:16:33;10.80;99.90
35563;DHT22;21665;40.108;18.302;2023-03-01T00:19:01;10.70;99.90
35563;DHT22;21665;40.108;18.302;2023-03-01T00:21:31;10.70;99.90
35563;DHT22;21665;40.108;18.302;2023-03-01T00:23:58;10.60;99.90
35563;DHT22;21665;40.108;18.302;2023-03-01T00:26:25;10.60;99.90
35563;DHT22;21665;40.108;18.302;2023-03-01T00:28:52;10.60;99.90
35563;DHT22;21665;40.108;18.302;2023-03-01T00:31:21;10.60;99.90
35563;DHT22;21665;40.108;18.302;2023-03-01T00:34:00;10.50;99.90
35563;DHT22;21665;40.108;18.302;2023-03-01T00:36:32;10.50;99.90
35563;DHT22;21665;40.108;18.302;2023-03-01T00:39:00;10.40;99.90
35563;DHT22;21665;40.108;18.302;2023-03-01T00:41:26;10.40;99.90
35563;DHT22;21665;40.108;18.302;2023-03-01T00:43:53;10.40;99.90
35563;DHT22;21665;40.108;18.302;2023-03-01T00:46:22;10.30;99.90
35563;DHT22;21665;40.108;18.302;2023-03-01T00:48:49;10.30;99.90
35563;DHT22;21665;40.108;18.302;2023-03-01T00:51:19;10.30;99.90
35563;DHT22;21665;40.108;18.302;2023-03-01T00:53:46;10.30;99.90
35563;DHT22;21665;40.108;18.302;2023-03-01T00:56:14;10.20;99.90
35563;DHT22;21665;40.108;18.302;2023-03-01T01:25:03;10.20;99.90
35563;DHT22;21665;40.108;18.302;2023-03-01T01:48:06;10.20;99.90
35563;DHT22;21665;40.108;18.302;2023-03-01T01:51:19;10.20;99.90
35563;DHT22;21665;40.108;18.302;2023-03-01T02:02:26;10.20;99.90
35563;DHT22;21665;40.108;18.302;2023-03-01T02:18:49;10.30;99.90
35563;DHT22;21665;40.108;18.302;2023-03-01T02:22:11;10.30;99.90
35563;DHT22;21665;40.108;18.302;2023-03-01T02:31:47;10.90;99.90
35563;DHT22;21665;40.108;18.302;2023-03-01T02:34:26;11.40;99.90
35563;DHT22;21665;40.108;18.302;2023-03-01T02:37:03;11.90;99.90
35563;DHT22;21665;40.108;18.302;2023-03-01T02:39:41;12.30;99.90
35563;DHT22;21665;40.108;18.302;2023-03-01T02:42:47;12.60;99.90
35563;DHT22;21665;40.108;18.302;2023-03-01T02:49:47;12.90;99.90
35563;DHT22;21665;40.108;18.302;2023-03-01T03:06:15;13.30;99.90
35563;DHT22;21665;40.108;18.302;2023-03-01T03:09:25;13.40;99.90
35563;DHT22;21665;40.108;18.302;2023-03-01T03:13:17;13.50;99.90
35563;DHT22;21665;40.108;18.302;2023-03-01T03:16:32;13.60;99.90
35563;DHT22;21665;40.108;18.302;2023-03-01T03:23:25;13.60;99.90
35563;DHT22;21665;40.108;18.302;2023-03-01T03:26:26;13.70;99.90
35563;DHT22;21665;40.108;18.302;2023-03-01T03:29:59;13.70;99.90
35563;DHT22;21665;40.108;18.302;2023-03-01T03:53:25;13.70;99.90
35563;DHT22;21665;40.108;18.302;2023-03-01T04:19:06;13.60;99.90
35563;DHT22;21665;40.108;18.302;2023-03-01T04:44:10;13.70;99.90
35563;DHT22;21665;40.108;18.302;2023-03-01T04:59:02;13.80;99.90
35563;DHT22;21665;40.108;18.302;2023-03-01T05:43:56;14.10;99.90
35563;DHT22;21665;40.108;18.302;2023-03-01T05:50:48;14.20;99.90
35563;DHT22;21665;40.108;18.302;2023-03-01T05:53:21;14.20;99.90
35563;DHT22;21665;40.108;18.302;2023-03-01T05:55:48;14.30;99.90
35563;DHT22;21665;40.108;18.302;2023-03-01T05:58:19;14.40;99.90
35563;DHT22;21665;40.108;18.302;2023-03-01T06:00:47;14.40;99.90
35563;DHT22;21665;40.108;18.302;2023-03-01T06:03:17;14.40;99.90
35563;DHT22;21665;40.108;18.302;2023-03-01T06:06:07;14.40;99.90
35563;DHT22;21665;40.108;18.302;2023-03-01T06:28:02;14.60;99.90
35563;DHT22;21665;40.108;18.302;2023-03-01T06:31:08;14.60;99.90
35563;DHT22;21665;40.108;18.302;2023-03-01T06:33:59;14.60;99.90
35563;DHT22;21665;40.108;18.302;2023-03-01T06:36:38;14.70;99.90
35563;DHT22;21665;40.108;18.302;2023-03-01T06:42:49;14.80;99.90
35563;DHT22;21665;40.108;18.302;2023-03-01T06:45:17;14.80;99.90
35563;DHT22;21665;40.108;18.302;2023-03-01T06:47:44;14.80;99.90
35563;DHT22;21665;40.108;18.302;2023-03-01T06:50:12;14.80;99.90
35563;DHT22;21665;40.108;18.302;2023-03-01T06:52:39;14.80;99.90
35563;DHT22;21665;40.108;18.302;2023-03-01T06:55:06;14.80;99.90
35563;DHT22;21665;40.108;18.302;2023-03-01T06:57:33;14.80;99.90
35563;DHT22;21665;40.108;18.302;2023-03-01T06:59:59;14.90;99.90
35563;DHT22;21665;40.108;18.302;2023-03-01T07:02:26;14.90;99.90
35563;DHT22;21665;40.108;18.302;2023-03-01T07:04:52;14.90;99.90
35563;DHT22;21665;40.108;18.302;2023-03-01T07:07:19;14.90;99.90
35563;DHT22;21665;40.108;18.302;2023-03-01T07:10:12;14.90;99.90
35563;DHT22;21665;40.108;18.302;2023-03-01T07:12:41;14.90;99.90
35563;DHT22;21665;40.108;18.302;2023-03-01T07:15:09;14.90;99.90
35563;DHT22;21665;40.108;18.302;2023-03-01T07:17:36;14.90;99.90
35563;DHT22;21665;40.108;18.302;2023-03-01T07:20:03;14.90;99.90
35563;DHT22;21665;40.108;18.302;2023-03-01T07:22:29;14.90;99.90
35563;DHT22;21665;40.108;18.302;2023-03-01T07:25:18;14.80;99.90
35563;DHT22;21665;40.108;18.302;2023-03-01T07:27:55;14.80;99.90
35563;DHT22;21665;40.108;18.302;2023-03-01T07:30:22;14.90;99.90
35563;DHT22;21665;40.108;18.302;2023-03-01T07:32:51;14.90;99.90
35563;DHT22;21665;40.108;18.302;2023-03-01T07:35:18;14.80;99.90
35563;DHT22;21665;40.108;18.302;2023-03-01T07:37:44;14.80;99.90
35563;DHT22;21665;40.108;18.302;2023-03-01T07:40:11;14.80;99.90
35563;DHT22;21665;40.108;18.302;2023-03-01T07:42:38;14.80;99.90
35563;DHT22;21665;40.108;18.302;2023-03-01T07:45:11;14.80;99.90
35563;DHT22;21665;40.108;18.302;2023-03-01T07:47:39;14.70;99.90
35563;DHT22;21665;40.108;18.302;2023-03-01T07:50:06;14.80;99.90
35563;DHT22;21665;40.108;18.302;2023-03-01T07:52:33;14.80;99.90
35563;DHT22;21665;40.108;18.302;2023-03-01T07:54:59;14.70;99.90
35563;DHT22;21665;40.108;18.302;2023-03-01T07:57:26;14.70;99.90
35563;DHT22;21665;40.108;18.302;2023-03-01T07:59:52;14.70;99.90
35563;DHT22;21665;40.108;18.302;2023-03-01T08:02:18;14.70;99.90
35563;DHT22;21665;40.108;18.302;2023-03-01T08:04:45;14.80;99.90
35563;DHT22;21665;40.108;18.302;2023-03-01T08:07:12;14.90;99.90
35563;DHT22;21665;40.108;18.302;2023-03-01T08:09:38;15.00;99.90
35563;DHT22;21665;40.108;18.302;2023-03-01T08:12:05;15.20;99.90
35563;DHT22;21665;40.108;18.302;2023-03-01T08:14:32;15.30;99.90
35563;DHT22;21665;40.108;18.302;2023-03-01T08:16:59;15.40;99.90
35563;DHT22;21665;40.108;18.302;2023-03-01T08:19:26;15.50;99.90
35563;DHT22;21665;40.108;18.302;2023-03-01T08:21:54;15.70;99.90
35563;DHT22;21665;40.108;18.302;2023-03-01T08:24:24;15.80;99.90
35563;DHT22;21665;40.108;18.302;2023-03-01T08:26:51;15.80;99.90
35563;DHT22;21665;40.108;18.302;2023-03-01T08:29:17;15.80;99.90
35563;DHT22;21665;40.108;18.302;2023-03-01T08:31:44;16.00;99.90
35563;DHT22;21665;40.108;18.302;2023-03-01T08:34:13;16.00;99.90
35563;DHT22;21665;40.108;18.302;2023-03-01T08:36:43;16.10;99.90
35563;DHT22;21665;40.108;18.302;2023-03-01T08:39:13;16.40;99.90
35563;DHT22;21665;40.108;18.302;2023-03-01T08:41:40;16.60;99.90
35563;DHT22;21665;40.108;18.302;2023-03-01T08:44:09;17.10;99.90
35563;DHT22;21665;40.108;18.302;2023-03-01T08:46:38;17.50;99.90
35563;DHT22;21665;40.108;18.302;2023-03-01T08:49:26;17.50;99.90
35563;DHT22;21665;40.108;18.302;2023-03-01T08:52:13;16.90;99.90
35563;DHT22;21665;40.108;18.302;2023-03-01T08:54:57;16.60;99.90
35563;DHT22;21665;40.108;18.302;2023-03-01T08:57:24;16.30;99.90
35563;DHT22;21665;40.108;18.302;2023-03-01T08:59:50;16.60;99.90
35563;DHT22;21665;40.108;18.302;2023-03-01T09:02:19;17.00;99.90
35563;DHT22;21665;40.108;18.302;2023-03-01T09:04:46;17.20;99.90
35563;DHT22;21665;40.108;18.302;2023-03-01T09:07:46;17.10;99.90
35563;DHT22;21665;40.108;18.302;2023-03-01T09:14:16;17.60;99.90
35563;DHT22;21665;40.108;18.302;2023-03-01T09:16:43;17.60;99.90
35563;DHT22;21665;40.108;18.302;2023-03-01T09:19:14;17.50;99.90
35563;DHT22;21665;40.108;18.302;2023-03-01T09:24:42;17.70;99.90
35563;DHT22;21665;40.108;18.302;2023-03-01T09:27:09;18.00;99.90
35563;DHT22;21665;40.108;18.302;2023-03-01T09:30:01;17.90;99.90
35563;DHT22;21665;40.108;18.302;2023-03-01T09:32:30;17.60;99.90
35563;DHT22;21665;40.108;18.302;2023-03-01T09:35:00;17.40;99.90
35563;DHT22;21665;40.108;18.302;2023-03-01T09:37:38;17.50;99.90
35563;DHT22;21665;40.108;18.302;2023-03-01T09:40:14;17.40;99.90
35563;DHT22;21665;40.108;18.302;2023-03-01T09:45:35;17.40;99.90
35563;DHT22;21665;40.108;18.302;2023-03-01T09:48:09;17.20;99.90
35563;DHT22;21665;40.108;18.302;2023-03-01T09:50:41;17.10;99.90
35563;DHT22;21665;40.108;18.302;2023-03-01T09:53:26;17.30;99.90
35563;DHT22;21665;40.108;18.302;2023-03-01T09:56:19;17.30;99.90
35563;DHT22;21665;40.108;18.302;2023-03-01T09:59:17;17.40;99.90
35563;DHT22;21665;40.108;18.302;2023-03-01T10:02:07;17.10;99.90
35563;DHT22;21665;40.108;18.302;2023-03-01T10:09:44;17.10;99.90
35563;DHT22;21665;40.108;18.302;2023-03-01T10:12:15;17.10;99.90
35563;DHT22;21665;40.108;18.302;2023-03-01T10:18:12;17.10;99.90
35563;DHT22;21665;40.108;18.302;2023-03-01T10:23:17;17.50;99.90
35563;DHT22;21665;40.108;18.302;2023-03-01T10:29:18;17.60;99.90
35563;DHT22;21665;40.108;18.302;2023-03-01T10:32:09;17.30;99.90
35563;DHT22;21665;40.108;18.302;2023-03-01T10:34:40;17.30;99.90
35563;DHT22;21665;40.108;18.302;2023-03-01T10:53:41;17.90;99.90
35563;DHT22;21665;40.108;18.302;2023-03-01T10:56:17;18.10;99.90
35563;DHT22;21665;40.108;18.302;2023-03-01T10:59:25;18.30;99.90
35563;DHT22;21665;40.108;18.302;2023-03-01T11:02:26;18.00;99.90
35563;DHT22;21665;40.108;18.302;2023-03-01T11:07:52;17.90;99.90
35563;DHT22;21665;40.108;18.302;2023-03-01T11:10:36;18.00;99.90
35563;DHT22;21665;40.108;18.302;2023-03-01T11:13:18;18.10;99.90
35563;DHT22;21665;40.108;18.302;2023-03-01T11:16:01;18.20;99.90
35563;DHT22;21665;40.108;18.302;2023-03-01T11:18:55;18.20;99.90
35563;DHT22;21665;40.108;18.302;2023-03-01T11:24:56;18.50;99.90
35563;DHT22;21665;40.108;18.302;2023-03-01T11:27:33;18.70;99.90
35563;DHT22;21665;40.108;18.302;2023-03-01T11:33:39;18.20;99.90
35563;DHT22;21665;40.108;18.302;2023-03-01T11:36:50;18.40;99.90
35563;DHT22;21665;40.108;18.302;2023-03-01T11:39:58;18.10;99.90
35563;DHT22;21665;40.108;18.302;2023-03-01T11:42:50;18.00;99.90
35563;DHT22;21665;40.108;18.302;2023-03-01T11:45:47;17.90;99.90
35563;DHT22;21665;40.108;18.302;2023-03-01T11:56:00;18.40;99.90
35563;DHT22;21665;40.108;18.302;2023-03-01T12:13:29;18.60;99.90
35563;DHT22;21665;40.108;18.302;2023-03-01T12:19:42;18.70;99.90
35563;DHT22;21665;40.108;18.302;2023-03-01T12:22:32;18.70;99.90
35563;DHT22;21665;40.108;18.302;2023-03-01T12:25:08;18.30;99.90
35563;DHT22;21665;40.108;18.302;2023-03-01T12:45:16;18.40;99.90
35563;DHT22;21665;40.108;18.302;2023-03-01T12:48:05;18.10;99.90
35563;DHT22;21665;40.108;18.302;2023-03-01T12:53:22;17.80;99.90
35563;DHT22;21665;40.108;18.302;2023-03-01T12:55:50;17.70;99.90
35563;DHT22;21665;40.108;18.302;2023-03-01T13:37:29;17.40;99.90
35563;DHT22;21665;40.108;18.302;2023-03-01T13:43:40;17.70;99.90
35563;DHT22;21665;40.108;18.302;2023-03-01T13:46:22;17.70;99.90
35563;DHT22;21665;40.108;18.302;2023-03-01T13:49:16;17.50;99.90
35563;DHT22;21665;40.108;18.302;2023-03-01T13:54:46;17.30;99.90
35563;DHT22;21665;40.108;18.302;2023-03-01T13:57:23;17.20;99.90
35563;DHT22;21665;40.108;18.302;2023-03-01T13:59:51;17.10;99.90
35563;DHT22;21665;40.108;18.302;2023-03-01T14:02:18;17.10;99.90
35563;DHT22;21665;40.108;18.302;2023-03-01T14:04:56;17.00;99.90
35563;DHT22;21665;40.108;18.302;2023-03-01T14:07:24;16.70;99.90
35563;DHT22;21665;40.108;18.302;2023-03-01T14:10:01;16.70;99.90
35563;DHT22;21665;40.108;18.302;2023-03-01T14:15:38;16.80;99.90
35563;DHT22;21665;40.108;18.302;2023-03-01T14:18:47;16.70;99.90
35563;DHT22;21665;40.108;18.302;2023-03-01T14:21:18;16.60;99.90
35563;DHT22;21665;40.108;18.302;2023-03-01T14:23:48;16.70;99.90
35563;DHT22;21665;40.108;18.302;2023-03-01T14:26:41;16.40;99.90
35563;DHT22;21665;40.108;18.302;2023-03-01T14:29:28;16.40;99.90
35563;DHT22;21665;40.108;18.302;2023-03-01T14:32:28;16.30;99.90
35563;DHT22;21665;40.108;18.302;2023-03-01T14:34:57;16.30;99.90
35563;DHT22;21665;40.108;18.302;2023-03-01T14:37:29;16.30;99.90
35563;DHT22;21665;40.108;18.302;2023-03-01T14:40:00;16.20;99.90
35563;DHT22;21665;40.108;18.302;2023-03-01T14:42:35;16.10;99.90
35563;DHT22;21665;40.108;18.302;2023-03-01T14:45:03;16.10;99.90
35563;DHT22;21665;40.108;18.302;2023-03-01T14:47:32;16.10;99.90
35563;DHT22;21665;40.108;18.302;2023-03-01T14:50:09;16.00;99.90
35563;DHT22;21665;40.108;18.302;2023-03-01T14:52:44;15.90;99.90
35563;DHT22;21665;40.108;18.302;2023-03-01T14:55:18;15.90;99.90
35563;DHT22;21665;40.108;18.302;2023-03-01T14:57:47;16.00;99.90
35563;DHT22;21665;40.108;18.302;2023-03-01T15:00:28;16.00;99.90
35563;DHT22;21665;40.108;18.302;2023-03-01T15:02:58;16.10;99.90
35563;DHT22;21665;40.108;18.302;2023-03-01T15:05:30;16.00;99.90
35563;DHT22;21665;40.108;18.302;2023-03-01T15:07:58;16.10;99.90
35563;DHT22;21665;40.108;18.302;2023-03-01T15:10:28;16.10;99.90
35563;DHT22;21665;40.108;18.302;2023-03-01T15:12:56;16.10;99.90
35563;DHT22;21665;40.108;18.302;2023-03-01T15:18:01;16.00;99.90
35563;DHT22;21665;40.108;18.302;2023-03-01T15:20:30;16.10;99.90
35563;DHT22;21665;40.108;18.302;2023-03-01T15:23:02;16.10;99.90
35563;DHT22;21665;40.108;18.302;2023-03-01T15:25:31;16.10;99.90
35563;DHT22;21665;40.108;18.302;2023-03-01T15:27:59;16.20;99.90
35563;DHT22;21665;40.108;18.302;2023-03-01T15:30:33;16.20;99.90
35563;DHT22;21665;40.108;18.302;2023-03-01T15:33:36;16.10;99.90
35563;DHT22;21665;40.108;18.302;2023-03-01T15:36:56;16.10;99.90
35563;DHT22;21665;40.108;18.302;2023-03-01T15:39:40;16.10;99.90
35563;DHT22;21665;40.108;18.302;2023-03-01T15:42:35;15.90;99.90
35563;DHT22;21665;40.108;18.302;2023-03-01T15:45:28;15.60;99.90
35563;DHT22;21665;40.108;18.302;2023-03-01T15:50:42;15.60;99.90
35563;DHT22;21665;40.108;18.302;2023-03-01T15:53:15;15.60;99.90
35563;DHT22;21665;40.108;18.302;2023-03-01T15:55:45;15.60;99.90
35563;DHT22;21665;40.108;18.302;2023-03-01T15:58:23;15.60;99.90
35563;DHT22;21665;40.108;18.302;2023-03-01T16:00:50;15.70;99.90
35563;DHT22;21665;40.108;18.302;2023-03-01T16:03:22;15.60;99.90
35563;DHT22;21665;40.108;18.302;2023-03-01T16:06:14;15.40;99.90
35563;DHT22;21665;40.108;18.302;2023-03-01T16:08:52;15.40;99.90
35563;DHT22;21665;40.108;18.302;2023-03-01T16:11:31;15.30;99.90
35563;DHT22;21665;40.108;18.302;2023-03-01T16:14:08;15.30;99.90
35563;DHT22;21665;40.108;18.302;2023-03-01T16:16:35;15.30;99.90
35563;DHT22;21665;40.108;18.302;2023-03-01T16:19:02;15.20;99.90
35563;DHT22;21665;40.108;18.302;2023-03-01T16:21:28;15.20;99.90
35563;DHT22;21665;40.108;18.302;2023-03-01T16:24:07;15.10;99.90
35563;DHT22;21665;40.108;18.302;2023-03-01T16:27:22;15.00;99.90
35563;DHT22;21665;40.108;18.302;2023-03-01T16:29:52;15.00;99.90
35563;DHT22;21665;40.108;18.302;2023-03-01T16:32:21;15.00;99.90
35563;DHT22;21665;40.108;18.302;2023-03-01T16:34:47;14.90;99.90
35563;DHT22;21665;40.108;18.302;2023-03-01T16:37:15;14.90;99.90
35563;DHT22;21665;40.108;18.302;2023-03-01T16:39:42;14.80;99.90
35563;DHT22;21665;40.108;18.302;2023-03-01T16:42:08;14.80;99.90
35563;DHT22;21665;40.108;18.302;2023-03-01T16:44:35;14.70;99.90
35563;DHT22;21665;40.108;18.302;2023-03-01T16:47:01;14.60;99.90
35563;DHT22;21665;40.108;18.302;2023-03-01T16:49:27;14.50;99.90
35563;DHT22;21665;40.108;18.302;2023-03-01T16:51:54;14.50;99.90
35563;DHT22;21665;40.108;18.302;2023-03-01T16:54:20;14.50;99.90
35563;DHT22;21665;40.108;18.302;2023-03-01T16:56:47;14.40;99.90
35563;DHT22;21665;40.108;18.302;2023-03-01T16:59:13;14.40;99.90
35563;DHT22;21665;40.108;18.302;2023-03-01T17:01:39;14.30;99.90
35563;DHT22;21665;40.108;18.302;2023-03-01T17:04:09;14.30;99.90
35563;DHT22;21665;40.108;18.302;2023-03-01T17:06:36;14.20;99.90
35563;DHT22;21665;40.108;18.302;2023-03-01T17:09:03;14.20;99.90
35563;DHT22;21665;40.108;18.302;2023-03-01T17:11:29;14.20;99.90
35563;DHT22;21665;40.108;18.302;2023-03-01T17:13:55;14.10;99.90
35563;DHT22;21665;40.108;18.302;2023-03-01T17:16:29;14.10;99.90
35563;DHT22;21665;40.108;18.302;2023-03-01T17:19:07;14.00;99.90
35563;DHT22;21665;40.108;18.302;2023-03-01T17:21:36;14.00;99.90
35563;DHT22;21665;40.108;18.302;2023-03-01T17:24:03;14.00;99.90
35563;DHT22;21665;40.108;18.302;2023-03-01T17:26:30;13.90;99.90
35563;DHT22;21665;40.108;18.302;2023-03-01T17:28:57;13.80;99.90
35563;DHT22;21665;40.108;18.302;2023-03-01T17:31:27;13.70;99.90
35563;DHT22;21665;40.108;18.302;2023-03-01T17:33:56;13.70;99.90
35563;DHT22;21665;40.108;18.302;2023-03-01T17:36:22;13.60;99.90
35563;DHT22;21665;40.108;18.302;2023-03-01T17:38:52;13.50;99.90
35563;DHT22;21665;40.108;18.302;2023-03-01T17:41:18;13.50;99.90
35563;DHT22;21665;40.108;18.302;2023-03-01T17:46:34;13.30;99.90
35563;DHT22;21665;40.108;18.302;2023-03-01T17:49:00;13.20;99.90
35563;DHT22;21665;40.108;18.302;2023-03-01T17:51:27;13.10;99.90
35563;DHT22;21665;40.108;18.302;2023-03-01T17:53:54;13.10;99.90
35563;DHT22;21665;40.108;18.302;2023-03-01T17:56:20;13.00;99.90
35563;DHT22;21665;40.108;18.302;2023-03-01T17:58:47;13.00;99.90
35563;DHT22;21665;40.108;18.302;2023-03-01T18:01:18;12.90;99.90
35563;DHT22;21665;40.108;18.302;2023-03-01T18:03:45;13.00;99.90
35563;DHT22;21665;40.108;18.302;2023-03-01T18:06:17;12.90;99.90
35563;DHT22;21665;40.108;18.302;2023-03-01T18:08:46;12.90;99.90
35563;DHT22;21665;40.108;18.302;2023-03-01T18:11:22;12.90;99.90
35563;DHT22;21665;40.108;18.302;2023-03-01T18:13:49;12.90;99.90
35563;DHT22;21665;40.108;18.302;2023-03-01T18:16:18;12.80;99.90
35563;DHT22;21665;40.108;18.302;2023-03-01T18:18:45;12.90;99.90
35563;DHT22;21665;40.108;18.302;2023-03-01T18:21:12;12.80;99.90
35563;DHT22;21665;40.108;18.302;2023-03-01T18:23:38;12.80;99.90
35563;DHT22;21665;40.108;18.302;2023-03-01T18:26:10;12.80;99.90
35563;DHT22;21665;40.108;18.302;2023-03-01T18:28:38;12.80;99.90
35563;DHT22;21665;40.108;18.302;2023-03-01T18:31:07;12.70;99.90
35563;DHT22;21665;40.108;18.302;2023-03-01T18:33:36;12.70;99.90
35563;DHT22;21665;40.108;18.302;2023-03-01T18:36:04;12.60;99.90
35563;DHT22;21665;40.108;18.302;2023-03-01T18:38:31;12.60;99.90
35563;DHT22;21665;40.108;18.302;2023-03-01T18:40:58;12.60;99.90
35563;DHT22;21665;40.108;18.302;2023-03-01T18:43:25;12.60;99.90
35563;DHT22;21665;40.108;18.302;2023-03-01T18:46:00;12.50;99.90
35563;DHT22;21665;40.108;18.302;2023-03-01T18:48:30;12.50;99.90
35563;DHT22;21665;40.108;18.302;2023-03-01T18:51:05;12.50;99.90
35563;DHT22;21665;40.108;18.302;2023-03-01T18:53:32;12.40;99.90
35563;DHT22;21665;40.108;18.302;2023-03-01T18:55:59;12.40;99.90
35563;DHT22;21665;40.108;18.302;2023-03-01T18:58:27;12.40;99.90
35563;DHT22;21665;40.108;18.302;2023-03-01T19:00:57;12.40;99.90
35563;DHT22;21665;40.108;18.302;2023-03-01T19:05:59;12.30;99.90
35563;DHT22;21665;40.108;18.302;2023-03-01T19:23:45;12.00;99.90
35563;DHT22;21665;40.108;18.302;2023-03-01T19:26:19;12.00;99.90
35563;DHT22;21665;40.108;18.302;2023-03-01T19:32:23;12.00;99.90
35563;DHT22;21665;40.108;18.302;2023-03-01T19:35:22;11.90;99.90
35563;DHT22;21665;40.108;18.302;2023-03-01T19:40:40;11.90;99.90
35563;DHT22;21665;40.108;18.302;2023-03-01T19:43:31;11.80;99.90
35563;DHT22;21665;40.108;18.302;2023-03-01T19:49:42;11.70;99.90
35563;DHT22;21665;40.108;18.302;2023-03-01T19:52:09;11.60;99.90
35563;DHT22;21665;40.108;18.302;2023-03-01T19:54:44;11.50;99.90
35563;DHT22;21665;40.108;18.302;2023-03-01T19:57:26;11.30;99.90
35563;DHT22;21665;40.108;18.302;2023-03-01T20:00:04;11.20;99.90
35563;DHT22;21665;40.108;18.302;2023-03-01T20:02:38;11.20;99.90
35563;DHT22;21665;40.108;18.302;2023-03-01T20:05:05;11.20;99.90
35563;DHT22;21665;40.108;18.302;2023-03-01T20:07:32;11.10;99.90
35563;DHT22;21665;40.108;18.302;2023-03-01T20:13:38;11.00;99.90
35563;DHT22;21665;40.108;18.302;2023-03-01T20:16:24;10.80;99.90
35563;DHT22;21665;40.108;18.302;2023-03-01T20:19:19;10.70;99.90
35563;DHT22;21665;40.108;18.302;2023-03-01T20:24:43;10.60;99.90
35563;DHT22;21665;40.108;18.302;2023-03-01T20:27:37;10.50;99.90
35563;DHT22;21665;40.108;18.302;2023-03-01T20:30:24;10.40;99.90
35563;DHT22;21665;40.108;18.302;2023-03-01T20:46:11;10.20;99.90
35563;DHT22;21665;40.108;18.302;2023-03-01T20:48:51;10.20;99.90
35563;DHT22;21665;40.108;18.302;2023-03-01T20:51:18;10.20;99.90
35563;DHT22;21665;40.108;18.302;2023-03-01T20:54:14;10.20;99.90
35563;DHT22;21665;40.108;18.302;2023-03-01T20:56:40;10.10;99.90
35563;DHT22;21665;40.108;18.302;2023-03-01T20:59:07;10.20;99.90
35563;DHT22;21665;40.108;18.302;2023-03-01T21:01:35;10.10;99.90
35563;DHT22;21665;40.108;18.302;2023-03-01T21:04:02;10.10;99.90
35563;DHT22;21665;40.108;18.302;2023-03-01T21:06:44;10.00;99.90
35563;DHT22;21665;40.108;18.302;2023-03-01T21:09:10;10.00;99.90
35563;DHT22;21665;40.108;18.302;2023-03-01T21:11:39;9.90;99.90
35563;DHT22;21665;40.108;18.302;2023-03-01T21:14:05;9.80;99.90
35563;DHT22;21665;40.108;18.302;2023-03-01T21:16:32;9.80;99.90
35563;DHT22;21665;40.108;18.302;2023-03-01T21:19:00;9.80;99.90
35563;DHT22;21665;40.108;18.302;2023-03-01T21:21:28;9.70;99.90
35563;DHT22;21665;40.108;18.302;2023-03-01T21:23:54;9.70;99.90
35563;DHT22;21665;40.108;18.302;2023-03-01T21:26:30;9.70;99.90
35563;DHT22;21665;40.108;18.302;2023-03-01T21:29:03;9.70;99.90
35563;DHT22;21665;40.108;18.302;2023-03-01T21:31:41;9.70;99.90
35563;DHT22;21665;40.108;18.302;2023-03-01T21:34:11;9.70;99.90
35563;DHT22;21665;40.108;18.302;2023-03-01T21:39:57;9.70;99.90
35563;DHT22;21665;40.108;18.302;2023-03-01T21:56:00;9.60;99.90
35563;DHT22;21665;40.108;18.302;2023-03-01T21:59:04;9.60;99.90
35563;DHT22;21665;40.108;18.302;2023-03-01T22:05:10;9.50;99.90
35563;DHT22;21665;40.108;18.302;2023-03-01T22:11:41;9.70;99.90
35563;DHT22;21665;40.108;18.302;2023-03-01T23:12:19;10.10;99.90
35563;DHT22;21665;40.108;18.302;2023-03-01T23:18:26;9.90;99.90
35563;DHT22;21665;40.108;18.302;2023-03-01T23:34:46;9.60;99.90
